createdAt,value
2019-05-20T00:00:33.101Z,0.00
2019-05-20T00:01:33.098Z,0.00
2019-05-20T00:02:33.098Z,0.00
2019-05-20T00:03:33.096Z,0.00
2019-05-20T00:04:33.098Z,0.00
2019-05-20T00:05:33.141Z,0.00
2019-05-20T00:06:33.092Z,0.00
2019-05-20T00:07:33.089Z,0.00
2019-05-20T00:08:33.087Z,0.00
2019-05-20T00:09:33.084Z,0.00
2019-05-20T00:10:33.086Z,0.00
2019-05-20T00:11:33.082Z,0.00
2019-05-20T00:12:33.082Z,0.00
2019-05-20T00:13:33.083Z,0.00
2019-05-20T00:14:33.076Z,0.00
2019-05-20T00:15:33.075Z,0.00
2019-05-20T00:16:33.072Z,0.00
2019-05-20T00:17:33.074Z,0.00
2019-05-20T00:18:33.077Z,0.00
2019-05-20T00:19:33.067Z,0.00
2019-05-20T00:20:33.077Z,0.00
2019-05-20T00:21:33.072Z,0.00
2019-05-20T00:22:33.061Z,0.00
2019-05-20T00:23:33.063Z,0.00
2019-05-20T00:24:33.059Z,0.00
2019-05-20T00:25:33.058Z,0.00
2019-05-20T00:26:33.056Z,0.00
2019-05-20T00:27:33.054Z,0.00
2019-05-20T00:28:33.051Z,0.00
2019-05-20T00:29:33.050Z,0.00
2019-05-20T00:30:33.055Z,0.00
2019-05-20T00:31:33.048Z,0.00
2019-05-20T00:32:40.961Z,0.00
2019-05-20T00:33:33.043Z,0.00
2019-05-20T00:34:35.579Z,0.00
2019-05-20T00:35:33.042Z,0.00
2019-05-20T00:36:33.061Z,0.00
2019-05-20T00:37:33.036Z,0.00
2019-05-20T00:38:33.033Z,0.00
2019-05-20T00:39:33.033Z,0.00
2019-05-20T00:40:33.031Z,0.00
2019-05-20T00:41:33.030Z,0.00
2019-05-20T00:42:33.026Z,0.00
2019-05-20T00:43:33.039Z,0.00
2019-05-20T00:44:33.024Z,0.00
2019-05-20T00:45:33.027Z,0.00
2019-05-20T00:46:33.021Z,0.00
2019-05-20T00:47:33.021Z,0.00
2019-05-20T00:48:33.019Z,0.00
2019-05-20T00:49:33.016Z,0.00
2019-05-20T00:50:33.014Z,0.00
2019-05-20T00:51:33.013Z,0.00
2019-05-20T00:52:33.011Z,0.00
2019-05-20T00:53:33.009Z,0.00
2019-05-20T00:54:33.007Z,0.00
2019-05-20T00:55:33.006Z,0.00
2019-05-20T00:56:33.006Z,0.00
2019-05-20T00:57:33.004Z,0.00
2019-05-20T00:58:33.000Z,0.00
2019-05-20T00:59:32.999Z,0.00
2019-05-20T01:00:32.997Z,0.00
2019-05-20T01:01:32.996Z,0.00
2019-05-20T01:02:32.994Z,0.00
2019-05-20T01:03:32.993Z,0.00
2019-05-20T01:04:32.992Z,0.00
2019-05-20T01:05:32.996Z,0.00
2019-05-20T01:06:32.988Z,0.00
2019-05-20T01:07:32.985Z,0.00
2019-05-20T01:08:32.983Z,0.00
2019-05-20T01:09:32.983Z,0.00
2019-05-20T01:10:32.981Z,0.00
2019-05-20T01:11:32.978Z,0.00
2019-05-20T01:12:32.978Z,0.00
2019-05-20T01:13:32.979Z,0.00
2019-05-20T01:14:32.975Z,0.00
2019-05-20T01:15:32.973Z,0.00
2019-05-20T01:16:32.969Z,0.00
2019-05-20T01:17:32.967Z,0.00
2019-05-20T01:18:32.964Z,0.00
2019-05-20T01:19:32.971Z,0.00
2019-05-20T01:20:32.962Z,0.00
2019-05-20T01:21:32.962Z,0.00
2019-05-20T01:22:32.957Z,0.00
2019-05-20T01:23:32.956Z,0.00
2019-05-20T01:24:32.966Z,0.00
2019-05-20T01:25:32.951Z,0.00
2019-05-20T01:26:32.953Z,0.00
2019-05-20T01:27:32.948Z,0.00
2019-05-20T01:28:32.946Z,0.00
2019-05-20T01:29:32.947Z,0.00
2019-05-20T01:30:32.941Z,0.00
2019-05-20T01:31:32.939Z,0.00
2019-05-20T01:32:32.938Z,0.00
2019-05-20T01:33:32.937Z,0.00
2019-05-20T01:34:32.933Z,0.00
2019-05-20T01:35:32.930Z,0.00
2019-05-20T01:36:32.946Z,0.00
2019-05-20T01:37:32.928Z,0.00
2019-05-20T01:38:32.926Z,0.00
2019-05-20T01:39:32.953Z,0.00
2019-05-20T01:40:32.919Z,0.00
2019-05-20T01:41:32.919Z,0.00
2019-05-20T01:42:32.917Z,0.00
2019-05-20T01:43:32.913Z,0.00
2019-05-20T01:44:32.914Z,0.00
2019-05-20T01:45:32.910Z,0.00
2019-05-20T01:46:32.910Z,0.00
2019-05-20T01:47:32.905Z,0.00
2019-05-20T01:48:32.902Z,0.00
2019-05-20T01:49:32.904Z,0.00
2019-05-20T01:50:32.900Z,0.00
2019-05-20T01:51:32.898Z,0.00
2019-05-20T01:52:32.896Z,0.00
2019-05-20T01:53:32.896Z,0.00
2019-05-20T01:54:32.892Z,0.00
2019-05-20T01:55:32.891Z,0.00
2019-05-20T01:56:32.886Z,0.00
2019-05-20T01:57:32.886Z,0.00
2019-05-20T01:58:32.880Z,0.00
2019-05-20T01:59:32.880Z,0.00
2019-05-20T02:00:32.885Z,0.00
2019-05-20T02:01:32.875Z,0.00
2019-05-20T02:02:32.870Z,0.00
2019-05-20T02:03:32.874Z,0.00
2019-05-20T02:04:32.869Z,0.00
2019-05-20T02:05:32.865Z,0.00
2019-05-20T02:06:32.861Z,0.00
2019-05-20T02:07:32.858Z,0.00
2019-05-20T02:08:32.857Z,0.00
2019-05-20T02:09:32.858Z,0.00
2019-05-20T02:10:32.852Z,0.00
2019-05-20T02:11:32.875Z,0.00
2019-05-20T02:12:32.846Z,0.00
2019-05-20T02:13:32.845Z,0.00
2019-05-20T02:14:32.842Z,0.00
2019-05-20T02:15:32.842Z,0.00
2019-05-20T02:16:32.838Z,0.00
2019-05-20T02:17:32.834Z,0.00
2019-05-20T02:18:32.841Z,0.00
2019-05-20T02:19:32.830Z,0.00
2019-05-20T02:20:32.831Z,0.00
2019-05-20T02:21:32.825Z,0.00
2019-05-20T02:22:32.822Z,0.00
2019-05-20T02:23:32.820Z,0.00
2019-05-20T02:24:32.818Z,0.00
2019-05-20T02:25:32.834Z,0.00
2019-05-20T02:26:32.811Z,0.00
2019-05-20T02:27:32.810Z,0.00
2019-05-20T02:28:32.809Z,0.00
2019-05-20T02:29:32.807Z,0.00
2019-05-20T02:30:32.803Z,0.00
2019-05-20T02:31:32.806Z,0.00
2019-05-20T02:32:32.798Z,0.00
2019-05-20T02:33:49.923Z,0.00
2019-05-20T02:34:32.791Z,0.00
2019-05-20T02:35:32.790Z,0.00
2019-05-20T02:36:32.786Z,0.00
2019-05-20T02:37:32.784Z,0.00
2019-05-20T02:38:32.778Z,0.00
2019-05-20T02:39:32.778Z,0.00
2019-05-20T02:40:32.779Z,0.00
2019-05-20T02:41:32.772Z,0.00
2019-05-20T02:42:32.844Z,0.00
2019-05-20T02:43:32.771Z,0.00
2019-05-20T02:44:32.827Z,0.00
2019-05-20T02:45:32.763Z,0.00
2019-05-20T02:46:32.759Z,0.00
2019-05-20T02:47:32.756Z,0.00
2019-05-20T02:48:32.753Z,0.00
2019-05-20T02:49:32.752Z,0.00
2019-05-20T02:50:32.747Z,0.00
2019-05-20T02:51:32.745Z,0.00
2019-05-20T02:52:32.743Z,0.00
2019-05-20T02:53:32.741Z,0.00
2019-05-20T02:54:32.736Z,0.00
2019-05-20T02:55:32.735Z,0.00
2019-05-20T02:56:32.764Z,0.00
2019-05-20T02:57:32.731Z,0.00
2019-05-20T02:58:32.726Z,4.00
2019-05-20T02:59:32.729Z,4.00
2019-05-20T03:00:32.720Z,0.00
2019-05-20T03:01:32.716Z,0.00
2019-05-20T03:02:32.733Z,4.00
2019-05-20T03:03:32.714Z,4.00
2019-05-20T03:04:32.710Z,0.00
2019-05-20T03:05:32.737Z,4.00
2019-05-20T03:06:32.709Z,4.00
2019-05-20T03:07:32.701Z,4.00
2019-05-20T03:08:32.705Z,8.00
2019-05-20T03:09:32.714Z,4.00
2019-05-20T03:10:32.693Z,8.00
2019-05-20T03:11:32.690Z,8.00
2019-05-20T03:12:32.702Z,12.00
2019-05-20T03:13:32.684Z,12.00
2019-05-20T03:14:32.689Z,12.00
2019-05-20T03:15:32.679Z,16.00
2019-05-20T03:16:32.692Z,16.00
2019-05-20T03:17:32.673Z,20.00
2019-05-20T03:18:32.671Z,20.00
2019-05-20T03:19:32.667Z,20.00
2019-05-20T03:20:32.670Z,24.00
2019-05-20T03:21:32.662Z,24.00
2019-05-20T03:22:32.660Z,28.00
2019-05-20T03:23:32.656Z,28.00
2019-05-20T03:24:32.654Z,32.00
2019-05-20T03:25:32.651Z,36.00
2019-05-20T03:26:32.657Z,36.00
2019-05-20T03:27:32.645Z,36.00
2019-05-20T03:28:32.648Z,40.00
2019-05-20T03:29:32.643Z,44.00
2019-05-20T03:30:32.638Z,48.00
2019-05-20T03:31:32.635Z,52.00
2019-05-20T03:32:32.634Z,56.00
2019-05-20T03:33:32.631Z,56.00
2019-05-20T03:34:47.583Z,64.00
2019-05-20T03:35:32.624Z,68.00
2019-05-20T03:36:32.623Z,80.00
2019-05-20T03:37:32.619Z,80.00
2019-05-20T03:38:32.617Z,88.00
2019-05-20T03:39:32.613Z,92.00
2019-05-20T03:40:32.614Z,92.00
2019-05-20T03:41:32.611Z,100.00
2019-05-20T03:42:32.604Z,108.00
2019-05-20T03:43:32.601Z,104.00
2019-05-20T03:44:32.600Z,116.00
2019-05-20T03:45:32.605Z,120.00
2019-05-20T03:46:32.599Z,128.00
2019-05-20T03:47:32.591Z,136.00
2019-05-20T03:48:32.590Z,136.00
2019-05-20T03:49:32.588Z,144.00
2019-05-20T03:50:32.584Z,164.00
2019-05-20T03:51:32.585Z,180.00
2019-05-20T03:52:32.578Z,184.00
2019-05-20T03:53:32.579Z,200.00
2019-05-20T03:54:32.574Z,196.00
2019-05-20T03:55:32.571Z,208.00
2019-05-20T03:56:32.579Z,224.00
2019-05-20T03:57:32.565Z,244.00
2019-05-20T03:58:32.562Z,240.00
2019-05-20T03:59:32.559Z,240.00
2019-05-20T04:00:32.559Z,236.00
2019-05-20T04:01:32.555Z,236.00
2019-05-20T04:02:32.553Z,240.00
2019-05-20T04:03:32.549Z,240.00
2019-05-20T04:04:32.566Z,252.00
2019-05-20T04:05:32.545Z,264.00
2019-05-20T04:06:32.543Z,272.00
2019-05-20T04:07:32.549Z,268.00
2019-05-20T04:08:32.567Z,296.00
2019-05-20T04:09:32.536Z,336.00
2019-05-20T04:10:32.532Z,320.00
2019-05-20T04:11:32.538Z,332.00
2019-05-20T04:12:32.530Z,340.00
2019-05-20T04:13:34.911Z,324.00
2019-05-20T04:14:32.523Z,324.00
2019-05-20T04:15:32.521Z,336.00
2019-05-20T04:16:32.518Z,332.00
2019-05-20T04:17:32.515Z,312.00
2019-05-20T04:18:32.517Z,316.00
2019-05-20T04:19:32.511Z,316.00
2019-05-20T04:20:32.509Z,316.00
2019-05-20T04:21:32.505Z,336.00
2019-05-20T04:22:32.503Z,324.00
2019-05-20T04:23:32.501Z,352.00
2019-05-20T04:24:32.530Z,364.00
2019-05-20T04:25:32.496Z,364.00
2019-05-20T04:26:32.491Z,380.00
2019-05-20T04:27:32.493Z,408.00
2019-05-20T04:28:32.491Z,416.00
2019-05-20T04:29:32.529Z,432.00
2019-05-20T04:30:32.483Z,456.00
2019-05-20T04:31:32.480Z,488.00
2019-05-20T04:32:32.481Z,488.00
2019-05-20T04:33:32.482Z,504.00
2019-05-20T04:34:32.480Z,544.00
2019-05-20T04:35:32.472Z,540.00
2019-05-20T04:36:32.470Z,580.00
2019-05-20T04:37:32.470Z,572.00
2019-05-20T04:38:32.467Z,584.00
2019-05-20T04:39:32.466Z,600.00
2019-05-20T04:40:32.470Z,648.00
2019-05-20T04:41:35.455Z,620.00
2019-05-20T04:42:32.458Z,636.00
2019-05-20T04:43:32.455Z,640.00
2019-05-20T04:44:32.454Z,636.00
2019-05-20T04:45:32.450Z,672.00
2019-05-20T04:46:32.455Z,684.00
2019-05-20T04:47:32.449Z,672.00
2019-05-20T04:48:32.449Z,708.00
2019-05-20T04:49:32.443Z,736.00
2019-05-20T04:50:32.440Z,764.00
2019-05-20T04:51:32.440Z,756.00
2019-05-20T04:52:32.440Z,788.00
2019-05-20T04:53:32.439Z,760.00
2019-05-20T04:54:32.444Z,784.00
2019-05-20T04:55:32.437Z,740.00
2019-05-20T04:56:32.434Z,788.00
2019-05-20T04:57:32.431Z,808.00
2019-05-20T04:58:32.434Z,792.00
2019-05-20T04:59:32.450Z,780.00
2019-05-20T05:00:32.430Z,804.00
2019-05-20T05:01:32.420Z,736.00
2019-05-20T05:02:32.419Z,732.00
2019-05-20T05:03:32.425Z,804.00
2019-05-20T05:04:32.422Z,824.00
2019-05-20T05:05:37.830Z,760.00
2019-05-20T05:06:32.409Z,780.00
2019-05-20T05:07:32.408Z,820.00
2019-05-20T05:08:32.408Z,832.00
2019-05-20T05:09:32.404Z,824.00
2019-05-20T05:10:32.401Z,800.00
2019-05-20T05:11:32.401Z,768.00
2019-05-20T05:12:32.399Z,752.00
2019-05-20T05:13:32.400Z,908.00
2019-05-20T05:14:32.396Z,920.00
2019-05-20T05:15:32.391Z,1036.00
2019-05-20T05:16:32.395Z,1028.00
2019-05-20T05:17:32.388Z,1108.00
2019-05-20T05:18:32.387Z,1168.00
2019-05-20T05:19:32.385Z,1240.00
2019-05-20T05:20:32.383Z,1352.00
2019-05-20T05:21:32.382Z,1276.00
2019-05-20T05:22:32.380Z,1432.00
2019-05-20T05:23:32.381Z,1252.00
2019-05-20T05:24:32.376Z,1160.00
2019-05-20T05:25:32.376Z,1056.00
2019-05-20T05:26:32.372Z,1204.00
2019-05-20T05:27:32.375Z,1288.00
2019-05-20T05:28:32.373Z,1212.00
2019-05-20T05:29:32.368Z,1152.00
2019-05-20T05:30:32.368Z,1176.00
2019-05-20T05:31:32.365Z,1184.00
2019-05-20T05:32:32.362Z,1160.00
2019-05-20T05:33:32.359Z,1184.00
2019-05-20T05:34:32.356Z,1180.00
2019-05-20T05:35:32.354Z,1160.00
2019-05-20T05:36:32.354Z,1232.00
2019-05-20T05:37:32.357Z,1184.00
2019-05-20T05:38:32.349Z,1148.00
2019-05-20T05:39:32.347Z,1180.00
2019-05-20T05:40:32.348Z,1196.00
2019-05-20T05:41:32.408Z,1296.00
2019-05-20T05:42:32.343Z,1324.00
2019-05-20T05:43:32.341Z,1348.00
2019-05-20T05:44:32.339Z,1420.00
2019-05-20T05:45:32.415Z,1416.00
2019-05-20T05:46:32.338Z,1356.00
2019-05-20T05:47:32.334Z,1424.00
2019-05-20T05:48:32.333Z,1556.00
2019-05-20T05:49:32.330Z,1612.00
2019-05-20T05:50:32.335Z,1652.00
2019-05-20T05:51:32.327Z,1648.00
2019-05-20T05:52:32.333Z,1728.00
2019-05-20T05:53:32.324Z,1784.00
2019-05-20T05:54:32.324Z,1880.00
2019-05-20T05:55:32.318Z,1800.00
2019-05-20T05:56:32.317Z,1808.00
2019-05-20T05:57:32.317Z,1684.00
2019-05-20T05:58:32.315Z,1748.00
2019-05-20T05:59:32.315Z,1820.00
2019-05-20T06:00:32.312Z,1768.00
2019-05-20T06:01:32.310Z,1936.00
2019-05-20T06:02:32.315Z,2052.00
2019-05-20T06:03:32.308Z,2096.00
2019-05-20T06:04:32.308Z,1948.00
2019-05-20T06:05:32.302Z,1824.00
2019-05-20T06:06:32.300Z,1768.00
2019-05-20T06:07:32.299Z,1708.00
2019-05-20T06:08:32.296Z,1668.00
2019-05-20T06:09:32.299Z,1704.00
2019-05-20T06:10:35.540Z,1784.00
2019-05-20T06:11:32.292Z,1884.00
2019-05-20T06:12:32.292Z,1968.00
2019-05-20T06:13:32.288Z,1948.00
2019-05-20T06:14:32.291Z,1868.00
2019-05-20T06:15:32.286Z,1788.00
2019-05-20T06:16:36.526Z,1808.00
2019-05-20T06:17:32.284Z,1700.00
2019-05-20T06:18:32.283Z,1740.00
2019-05-20T06:19:32.279Z,1584.00
2019-05-20T06:20:32.278Z,1640.00
2019-05-20T06:21:32.278Z,1624.00
2019-05-20T06:22:32.275Z,1628.00
2019-05-20T06:23:32.274Z,1636.00
2019-05-20T06:24:32.272Z,1708.00
2019-05-20T06:25:32.277Z,1716.00
2019-05-20T06:26:32.268Z,1816.00
2019-05-20T06:27:32.266Z,1920.00
2019-05-20T06:28:32.267Z,2000.00
2019-05-20T06:29:32.265Z,2012.00
2019-05-20T06:30:32.263Z,2076.00
2019-05-20T06:31:32.280Z,2012.00
2019-05-20T06:32:32.263Z,1976.00
2019-05-20T06:33:32.259Z,1976.00
2019-05-20T06:34:32.319Z,1988.00
2019-05-20T06:35:32.255Z,1956.00
2019-05-20T06:36:32.254Z,1872.00
2019-05-20T06:37:32.260Z,1868.00
2019-05-20T06:38:32.251Z,1856.00
2019-05-20T06:39:32.248Z,1880.00
2019-05-20T06:40:32.248Z,1848.00
2019-05-20T06:41:32.246Z,1804.00
2019-05-20T06:42:32.246Z,1876.00
2019-05-20T06:43:32.242Z,1940.00
2019-05-20T06:44:32.241Z,1904.00
2019-05-20T06:45:32.240Z,2120.00
2019-05-20T06:46:32.237Z,2084.00
2019-05-20T06:47:32.236Z,2264.00
2019-05-20T06:48:32.235Z,2276.00
2019-05-20T06:49:32.237Z,2348.00
2019-05-20T06:50:32.230Z,2456.00
2019-05-20T06:51:32.229Z,2520.00
2019-05-20T06:52:35.987Z,2520.00
2019-05-20T06:53:32.231Z,2568.00
2019-05-20T06:54:32.228Z,2640.00
2019-05-20T06:55:32.222Z,2692.00
2019-05-20T06:56:32.232Z,2808.00
2019-05-20T06:57:32.220Z,2708.00
2019-05-20T06:58:32.222Z,2552.00
2019-05-20T06:59:32.219Z,2508.00
2019-05-20T07:00:32.217Z,2568.00
2019-05-20T07:01:32.215Z,2788.00
2019-05-20T07:02:32.212Z,3256.00
2019-05-20T07:03:32.213Z,3552.00
2019-05-20T07:04:32.212Z,3628.00
2019-05-20T07:05:32.212Z,3672.00
2019-05-20T07:06:46.065Z,3636.00
2019-05-20T07:07:32.205Z,3468.00
2019-05-20T07:08:32.213Z,3932.00
2019-05-20T07:09:32.204Z,4212.00
2019-05-20T07:10:32.202Z,3968.00
2019-05-20T07:11:32.200Z,4104.00
2019-05-20T07:12:40.534Z,4396.00
2019-05-20T07:13:32.200Z,4744.00
2019-05-20T07:14:32.210Z,4440.00
2019-05-20T07:15:32.199Z,4800.00
2019-05-20T07:16:32.194Z,4556.00
2019-05-20T07:17:32.193Z,4884.00
2019-05-20T07:18:32.199Z,5204.00
2019-05-20T07:19:32.191Z,5460.00
2019-05-20T07:20:32.190Z,5748.00
2019-05-20T07:21:32.188Z,5628.00
2019-05-20T07:22:32.188Z,5956.00
2019-05-20T07:23:32.185Z,5456.00
2019-05-20T07:24:32.184Z,5160.00
2019-05-20T07:25:32.204Z,4964.00
2019-05-20T07:26:32.184Z,5220.00
2019-05-20T07:27:32.182Z,4848.00
2019-05-20T07:28:32.183Z,4944.00
2019-05-20T07:29:32.180Z,4664.00
2019-05-20T07:30:32.185Z,5280.00
2019-05-20T07:31:32.177Z,5428.00
2019-05-20T07:32:32.195Z,5712.00
2019-05-20T07:33:32.178Z,6636.00
2019-05-20T07:34:32.176Z,6264.00
2019-05-20T07:35:32.179Z,5652.00
2019-05-20T07:36:32.178Z,5440.00
2019-05-20T07:37:32.334Z,4856.00
2019-05-20T07:38:32.172Z,4532.00
2019-05-20T07:39:32.218Z,4776.00
2019-05-20T07:40:32.175Z,4624.00
2019-05-20T07:41:32.174Z,4356.00
2019-05-20T07:42:32.171Z,3832.00
2019-05-20T07:43:32.171Z,4144.00
2019-05-20T07:44:32.183Z,4120.00
2019-05-20T07:45:32.176Z,3896.00
2019-05-20T07:46:32.169Z,3920.00
2019-05-20T07:47:32.170Z,4132.00
2019-05-20T07:48:32.828Z,4140.00
2019-05-20T07:49:32.167Z,4424.00
2019-05-20T07:50:32.167Z,4280.00
2019-05-20T07:51:32.167Z,4500.00
2019-05-20T07:52:32.167Z,5032.00
2019-05-20T07:53:32.208Z,5320.00
2019-05-20T07:54:32.167Z,5392.00
2019-05-20T07:55:32.170Z,5772.00
2019-05-20T07:56:32.166Z,6020.00
2019-05-20T07:57:32.167Z,6164.00
2019-05-20T07:58:33.669Z,6508.00
2019-05-20T07:59:32.165Z,6608.00
2019-05-20T08:00:32.166Z,5848.00
2019-05-20T08:01:32.187Z,5444.00
2019-05-20T08:02:32.164Z,5260.00
2019-05-20T08:03:32.167Z,5340.00
2019-05-20T08:04:32.223Z,5276.00
2019-05-20T08:05:32.164Z,5504.00
2019-05-20T08:06:32.172Z,5308.00
2019-05-20T08:07:50.262Z,4884.00
2019-05-20T08:08:32.163Z,4716.00
2019-05-20T08:09:32.189Z,5044.00
2019-05-20T08:10:32.161Z,5164.00
2019-05-20T08:11:32.167Z,5012.00
2019-05-20T08:12:32.167Z,5092.00
2019-05-20T08:13:32.161Z,4692.00
2019-05-20T08:14:32.160Z,4428.00
2019-05-20T08:15:32.161Z,3936.00
2019-05-20T08:16:32.164Z,4036.00
2019-05-20T08:17:32.160Z,3904.00
2019-05-20T08:18:32.165Z,3864.00
2019-05-20T08:19:32.161Z,3480.00
2019-05-20T08:20:32.167Z,3536.00
2019-05-20T08:21:32.161Z,3692.00
2019-05-20T08:22:32.158Z,4188.00
2019-05-20T08:23:32.185Z,4228.00
2019-05-20T08:24:32.160Z,3980.00
2019-05-20T08:25:32.162Z,3872.00
2019-05-20T08:26:32.179Z,3788.00
2019-05-20T08:27:32.160Z,3780.00
2019-05-20T08:28:32.160Z,3748.00
2019-05-20T08:29:32.159Z,4076.00
2019-05-20T08:30:32.159Z,4172.00
2019-05-20T08:31:32.158Z,4564.00
2019-05-20T08:32:32.166Z,4672.00
2019-05-20T08:33:32.158Z,4572.00
2019-05-20T08:34:32.319Z,4688.00
2019-05-20T08:35:32.158Z,4432.00
2019-05-20T08:36:32.244Z,4712.00
2019-05-20T08:37:44.932Z,4720.00
2019-05-20T08:38:32.155Z,4568.00
2019-05-20T08:39:32.156Z,4356.00
2019-05-20T08:40:32.156Z,4412.00
2019-05-20T08:41:32.163Z,4492.00
2019-05-20T08:42:32.156Z,4556.00
2019-05-20T08:43:32.159Z,4292.00
2019-05-20T08:44:32.273Z,4176.00
2019-05-20T08:45:32.157Z,4340.00
2019-05-20T08:46:32.155Z,4132.00
2019-05-20T08:47:33.003Z,3980.00
2019-05-20T08:48:32.157Z,4132.00
2019-05-20T08:49:32.163Z,4240.00
2019-05-20T08:50:32.155Z,4368.00
2019-05-20T08:51:32.191Z,5036.00
2019-05-20T08:52:32.166Z,4996.00
2019-05-20T08:53:32.153Z,5008.00
2019-05-20T08:54:32.172Z,4732.00
2019-05-20T08:55:32.177Z,4672.00
2019-05-20T08:56:32.163Z,4528.00
2019-05-20T08:57:32.153Z,4612.00
2019-05-20T08:58:32.153Z,5000.00
2019-05-20T08:59:32.151Z,5044.00
2019-05-20T09:00:32.168Z,5184.00
2019-05-20T09:01:32.154Z,5436.00
2019-05-20T09:02:32.223Z,5528.00
2019-05-20T09:03:32.151Z,5788.00
2019-05-20T09:04:32.156Z,6224.00
2019-05-20T09:05:32.175Z,6336.00
2019-05-20T09:06:32.173Z,6600.00
2019-05-20T09:07:32.162Z,6600.00
2019-05-20T09:08:32.154Z,6916.00
2019-05-20T09:09:32.225Z,7068.00
2019-05-20T09:10:32.153Z,7308.00
2019-05-20T09:11:32.159Z,6936.00
2019-05-20T09:12:32.152Z,6604.00
2019-05-20T09:13:32.191Z,6160.00
2019-05-20T09:14:32.151Z,6196.00
2019-05-20T09:15:32.205Z,5912.00
2019-05-20T09:16:32.154Z,6144.00
2019-05-20T09:17:32.168Z,6280.00
2019-05-20T09:18:32.385Z,6500.00
2019-05-20T09:19:32.153Z,6988.00
2019-05-20T09:20:32.155Z,7172.00
2019-05-20T09:21:32.152Z,7144.00
2019-05-20T09:22:32.216Z,7092.00
2019-05-20T09:23:32.151Z,6788.00
2019-05-20T09:24:32.193Z,7656.00
2019-05-20T09:25:32.179Z,8468.00
2019-05-20T09:26:32.153Z,8312.00
2019-05-20T09:27:32.152Z,8000.00
2019-05-20T09:28:32.155Z,8408.00
2019-05-20T09:29:32.154Z,8592.00
2019-05-20T09:30:32.163Z,8316.00
2019-05-20T09:31:32.162Z,8396.00
2019-05-20T09:32:32.156Z,7960.00
2019-05-20T09:33:32.157Z,8396.00
2019-05-20T09:34:32.158Z,8404.00
2019-05-20T09:35:32.178Z,8800.00
2019-05-20T09:36:32.160Z,8368.00
2019-05-20T09:37:32.160Z,8588.00
2019-05-20T09:38:32.175Z,8968.00
2019-05-20T09:39:32.167Z,8300.00
2019-05-20T09:40:32.166Z,7192.00
2019-05-20T09:41:32.176Z,6816.00
2019-05-20T09:42:32.162Z,6844.00
2019-05-20T09:43:32.167Z,7128.00
2019-05-20T09:44:32.163Z,6732.00
2019-05-20T09:45:32.164Z,6924.00
2019-05-20T09:46:32.166Z,7460.00
2019-05-20T09:47:32.182Z,7536.00
2019-05-20T09:48:32.175Z,6692.00
2019-05-20T09:49:32.173Z,6640.00
2019-05-20T09:50:32.171Z,6480.00
2019-05-20T09:51:32.171Z,5728.00
2019-05-20T09:52:32.174Z,5772.00
2019-05-20T09:53:32.213Z,6128.00
2019-05-20T09:54:32.173Z,6804.00
2019-05-20T09:55:32.237Z,6360.00
2019-05-20T09:56:32.178Z,6152.00
2019-05-20T09:57:32.179Z,6312.00
2019-05-20T09:58:32.186Z,6444.00
2019-05-20T09:59:42.769Z,6284.00
2019-05-20T10:00:32.182Z,6928.00
2019-05-20T10:01:32.182Z,7276.00
2019-05-20T10:02:37.506Z,6688.00
2019-05-20T10:03:32.184Z,6616.00
2019-05-20T10:04:32.185Z,6856.00
2019-05-20T10:05:32.189Z,6700.00
2019-05-20T10:06:32.188Z,6468.00
2019-05-20T10:07:32.188Z,6824.00
2019-05-20T10:08:39.060Z,6528.00
2019-05-20T10:09:32.191Z,6448.00
2019-05-20T10:10:32.205Z,6820.00
2019-05-20T10:11:32.192Z,6820.00
2019-05-20T10:12:45.616Z,6848.00
2019-05-20T10:13:32.196Z,6872.00
2019-05-20T10:14:32.198Z,6312.00
2019-05-20T10:15:32.203Z,5860.00
2019-05-20T10:16:32.199Z,5512.00
2019-05-20T10:17:32.201Z,5544.00
2019-05-20T10:18:37.398Z,5676.00
2019-05-20T10:19:32.202Z,5832.00
2019-05-20T10:20:32.211Z,6024.00
2019-05-20T10:21:32.207Z,6068.00
2019-05-20T10:22:32.281Z,5812.00
2019-05-20T10:23:32.242Z,5580.00
2019-05-20T10:24:32.209Z,5244.00
2019-05-20T10:25:32.300Z,5428.00
2019-05-20T10:26:32.211Z,5540.00
2019-05-20T10:27:32.219Z,5600.00
2019-05-20T10:28:32.217Z,6176.00
2019-05-20T10:29:32.217Z,6492.00
2019-05-20T10:30:32.215Z,6172.00
2019-05-20T10:31:32.369Z,6104.00
2019-05-20T10:32:32.220Z,5784.00
2019-05-20T10:33:32.285Z,5484.00
2019-05-20T10:34:32.221Z,5248.00
2019-05-20T10:35:32.223Z,5416.00
2019-05-20T10:36:32.224Z,5584.00
2019-05-20T10:37:32.225Z,5912.00
2019-05-20T10:38:32.227Z,5896.00
2019-05-20T10:39:32.227Z,5964.00
2019-05-20T10:40:32.257Z,5764.00
2019-05-20T10:41:32.230Z,5188.00
2019-05-20T10:42:32.232Z,5296.00
2019-05-20T10:43:32.235Z,5492.00
2019-05-20T10:44:32.235Z,5692.00
2019-05-20T10:45:32.236Z,5628.00
2019-05-20T10:46:32.236Z,5140.00
2019-05-20T10:47:32.237Z,5172.00
2019-05-20T10:48:32.240Z,5276.00
2019-05-20T10:49:32.241Z,5412.00
2019-05-20T10:50:32.241Z,5564.00
2019-05-20T10:51:32.246Z,5732.00
2019-05-20T10:52:32.243Z,5988.00
2019-05-20T10:53:32.246Z,6288.00
2019-05-20T10:54:32.245Z,6584.00
2019-05-20T10:55:32.315Z,6376.00
2019-05-20T10:56:32.248Z,6028.00
2019-05-20T10:57:32.251Z,6156.00
2019-05-20T10:58:32.252Z,6368.00
2019-05-20T10:59:32.253Z,6444.00
2019-05-20T11:00:32.255Z,6240.00
2019-05-20T11:01:32.263Z,6528.00
2019-05-20T11:02:32.261Z,7412.00
2019-05-20T11:03:32.257Z,7308.00
2019-05-20T11:04:35.294Z,6652.00
2019-05-20T11:05:32.262Z,6116.00
2019-05-20T11:06:32.265Z,5620.00
2019-05-20T11:07:32.280Z,5620.00
2019-05-20T11:08:32.268Z,6064.00
2019-05-20T11:09:32.269Z,6464.00
2019-05-20T11:10:32.269Z,6564.00
2019-05-20T11:11:32.270Z,7012.00
2019-05-20T11:12:32.271Z,7388.00
2019-05-20T11:13:32.274Z,6608.00
2019-05-20T11:14:32.276Z,5788.00
2019-05-20T11:15:32.288Z,5504.00
2019-05-20T11:16:32.278Z,5796.00
2019-05-20T11:17:32.300Z,6476.00
2019-05-20T11:18:32.293Z,7008.00
2019-05-20T11:19:32.295Z,7452.00
2019-05-20T11:20:32.297Z,7328.00
2019-05-20T11:21:32.286Z,7096.00
2019-05-20T11:22:32.292Z,7232.00
2019-05-20T11:23:32.288Z,7284.00
2019-05-20T11:24:32.290Z,7172.00
2019-05-20T11:25:32.293Z,6916.00
2019-05-20T11:26:32.296Z,6720.00
2019-05-20T11:27:32.296Z,6564.00
2019-05-20T11:28:32.297Z,6740.00
2019-05-20T11:29:32.303Z,7012.00
2019-05-20T11:30:32.299Z,7400.00
2019-05-20T11:31:32.301Z,7516.00
2019-05-20T11:32:32.302Z,6988.00
2019-05-20T11:33:32.306Z,6216.00
2019-05-20T11:34:32.314Z,6280.00
2019-05-20T11:35:32.309Z,7400.00
2019-05-20T11:36:32.312Z,8436.00
2019-05-20T11:37:32.312Z,8184.00
2019-05-20T11:38:32.315Z,8448.00
2019-05-20T11:39:34.142Z,9408.00
2019-05-20T11:40:32.316Z,9508.00
2019-05-20T11:41:53.440Z,9380.00
2019-05-20T11:42:32.319Z,9084.00
2019-05-20T11:43:32.322Z,7940.00
2019-05-20T11:44:32.324Z,6752.00
2019-05-20T11:45:32.326Z,6336.00
2019-05-20T11:46:32.327Z,6188.00
2019-05-20T11:47:32.329Z,6596.00
2019-05-20T11:48:32.331Z,7084.00
2019-05-20T11:49:32.339Z,7592.00
2019-05-20T11:50:32.395Z,8416.00
2019-05-20T11:51:32.336Z,8432.00
2019-05-20T11:52:32.354Z,7700.00
2019-05-20T11:53:32.341Z,7696.00
2019-05-20T11:54:32.354Z,7840.00
2019-05-20T11:55:32.354Z,7236.00
2019-05-20T11:56:32.356Z,6416.00
2019-05-20T11:57:32.356Z,6192.00
2019-05-20T11:58:32.351Z,6068.00
2019-05-20T11:59:32.353Z,6164.00
2019-05-20T12:00:32.356Z,6548.00
2019-05-20T12:01:32.368Z,7232.00
2019-05-20T12:02:32.388Z,8448.00
2019-05-20T12:03:32.363Z,9308.00
2019-05-20T12:04:32.363Z,9364.00
2019-05-20T12:05:32.365Z,9360.00
2019-05-20T12:06:32.366Z,9416.00
2019-05-20T12:07:32.373Z,8864.00
2019-05-20T12:08:32.373Z,8240.00
2019-05-20T12:09:46.612Z,8288.00
2019-05-20T12:10:32.377Z,8912.00
2019-05-20T12:11:32.444Z,10080.00
2019-05-20T12:12:32.387Z,10708.00
2019-05-20T12:13:32.384Z,10712.00
2019-05-20T12:14:32.385Z,9968.00
2019-05-20T12:15:32.388Z,9404.00
2019-05-20T12:16:32.390Z,8692.00
2019-05-20T12:17:32.398Z,8168.00
2019-05-20T12:18:32.394Z,8308.00
2019-05-20T12:19:32.397Z,8592.00
2019-05-20T12:20:32.399Z,8964.00
2019-05-20T12:21:32.403Z,9068.00
2019-05-20T12:22:32.404Z,9064.00
2019-05-20T12:23:32.410Z,8712.00
2019-05-20T12:24:32.411Z,8284.00
2019-05-20T12:25:32.412Z,8536.00
2019-05-20T12:26:32.416Z,9152.00
2019-05-20T12:27:32.418Z,9868.00